Disclaimer

Please do not use the information listed here in-flight or in-navigation, as they are not provided to us by the airports but are provided by volunteers, so they might be outdated.

Search


Regions


Airport information page

Radio informations:
Aerodrome flight information system (AFIS) - 118.4 MHz

Airport informations:
Latitude: 23° 52' 35.15" S
Longitude: 035° 24' 30.76" E
Elevation: 30 feet - 9 meters
Operating hours: Remarks
Operating agency: Civil government, landing fees and diplomatic clearance may be required
Timezone: UTC+2
Fuel: N/A

Runway information:
06/24 - 2625 x 98 feet< - >800 x 30 meters
16/34 - 4921 x 98 feet< - >1500 x 30 meters

Recent METARs:
FQIN 131500Z 17010KT 9999 SCT020 25/15 Q1017
FQIN 131500Z 17010KT 9999 SCT020 25/15 Q1017
FQIN 131600Z 17008KT 9999 SCT020 24/16 Q1017

Airport on the map: